sensor_id;sensor_type;location;lat;lon;timestamp;P1;durP1;ratioP1;P2;durP2;ratioP2
21206;SDS011;10761;48.532;8.026;2022-10-23T00:00:33;5.93;;;1.75;;
21206;SDS011;10761;48.532;8.026;2022-10-23T00:02:59;4.53;;;1.98;;
21206;SDS011;10761;48.532;8.026;2022-10-23T00:05:25;4.03;;;1.85;;
21206;SDS011;10761;48.532;8.026;2022-10-23T00:07:52;7.55;;;2.22;;
21206;SDS011;10761;48.532;8.026;2022-10-23T00:10:19;6.47;;;1.63;;
21206;SDS011;10761;48.532;8.026;2022-10-23T00:12:46;8.43;;;2.15;;
21206;SDS011;10761;48.532;8.026;2022-10-23T00:15:13;3.20;;;1.55;;
21206;SDS011;10761;48.532;8.026;2022-10-23T00:17:40;4.40;;;1.30;;
21206;SDS011;10761;48.532;8.026;2022-10-23T00:20:06;9.38;;;2.03;;
21206;SDS011;10761;48.532;8.026;2022-10-23T00:22:32;8.75;;;2.00;;
21206;SDS011;10761;48.532;8.026;2022-10-23T00:24:58;6.60;;;1.50;;
21206;SDS011;10761;48.532;8.026;2022-10-23T00:27:24;3.58;;;1.25;;
21206;SDS011;10761;48.532;8.026;2022-10-23T00:29:49;7.03;;;1.58;;
21206;SDS011;10761;48.532;8.026;2022-10-23T00:32:15;5.30;;;0.93;;
21206;SDS011;10761;48.532;8.026;2022-10-23T00:34:41;2.63;;;1.00;;
21206;SDS011;10761;48.532;8.026;2022-10-23T00:37:06;3.13;;;0.90;;
21206;SDS011;10761;48.532;8.026;2022-10-23T00:39:32;6.38;;;1.27;;
21206;SDS011;10761;48.532;8.026;2022-10-23T00:41:58;3.75;;;1.00;;
21206;SDS011;10761;48.532;8.026;2022-10-23T00:46:49;4.80;;;1.08;;
21206;SDS011;10761;48.532;8.026;2022-10-23T00:49:15;2.90;;;1.10;;
21206;SDS011;10761;48.532;8.026;2022-10-23T00:51:45;4.47;;;1.10;;
21206;SDS011;10761;48.532;8.026;2022-10-23T00:54:15;4.93;;;1.15;;
21206;SDS011;10761;48.532;8.026;2022-10-23T00:56:43;8.43;;;1.13;;
21206;SDS011;10761;48.532;8.026;2022-10-23T00:59:10;3.90;;;1.05;;
21206;SDS011;10761;48.532;8.026;2022-10-23T01:01:36;3.70;;;1.27;;
21206;SDS011;10761;48.532;8.026;2022-10-23T01:04:03;5.00;;;1.05;;
21206;SDS011;10761;48.532;8.026;2022-10-23T01:06:41;3.47;;;1.55;;
21206;SDS011;10761;48.532;8.026;2022-10-23T01:09:36;1.67;;;0.80;;
21206;SDS011;10761;48.532;8.026;2022-10-23T01:17:17;7.55;;;1.67;;
21206;SDS011;10761;48.532;8.026;2022-10-23T01:25:30;6.38;;;1.10;;
21206;SDS011;10761;48.532;8.026;2022-10-23T01:28:05;3.25;;;0.90;;
21206;SDS011;10761;48.532;8.026;2022-10-23T01:30:36;10.88;;;1.38;;
21206;SDS011;10761;48.532;8.026;2022-10-23T01:33:08;4.63;;;1.20;;
21206;SDS011;10761;48.532;8.026;2022-10-23T01:35:46;3.40;;;1.50;;
21206;SDS011;10761;48.532;8.026;2022-10-23T01:41:18;3.53;;;1.45;;
21206;SDS011;10761;48.532;8.026;2022-10-23T01:43:49;5.13;;;1.45;;
21206;SDS011;10761;48.532;8.026;2022-10-23T01:46:20;3.63;;;1.98;;
21206;SDS011;10761;48.532;8.026;2022-10-23T01:48:52;4.07;;;1.70;;
21206;SDS011;10761;48.532;8.026;2022-10-23T01:51:20;4.70;;;1.88;;
21206;SDS011;10761;48.532;8.026;2022-10-23T01:53:55;2.78;;;1.40;;
21206;SDS011;10761;48.532;8.026;2022-10-23T01:56:27;2.75;;;1.13;;
21206;SDS011;10761;48.532;8.026;2022-10-23T01:58:57;4.35;;;1.40;;
21206;SDS011;10761;48.532;8.026;2022-10-23T02:01:26;3.92;;;1.40;;
21206;SDS011;10761;48.532;8.026;2022-10-23T02:03:54;6.28;;;1.90;;
21206;SDS011;10761;48.532;8.026;2022-10-23T02:06:21;3.45;;;1.65;;
21206;SDS011;10761;48.532;8.026;2022-10-23T02:08:47;3.22;;;1.50;;
21206;SDS011;10761;48.532;8.026;2022-10-23T02:11:14;7.30;;;1.75;;
21206;SDS011;10761;48.532;8.026;2022-10-23T02:18:54;2.20;;;1.60;;
21206;SDS011;10761;48.532;8.026;2022-10-23T02:21:28;5.07;;;1.23;;
21206;SDS011;10761;48.532;8.026;2022-10-23T02:24:10;5.28;;;1.15;;
21206;SDS011;10761;48.532;8.026;2022-10-23T02:26:56;2.40;;;1.08;;
21206;SDS011;10761;48.532;8.026;2022-10-23T02:29:28;7.97;;;1.10;;
21206;SDS011;10761;48.532;8.026;2022-10-23T02:31:57;5.07;;;1.15;;
21206;SDS011;10761;48.532;8.026;2022-10-23T02:34:22;2.13;;;0.93;;
21206;SDS011;10761;48.532;8.026;2022-10-23T02:36:48;5.40;;;0.80;;
21206;SDS011;10761;48.532;8.026;2022-10-23T02:39:14;3.17;;;0.93;;
21206;SDS011;10761;48.532;8.026;2022-10-23T02:41:46;10.20;;;1.10;;
21206;SDS011;10761;48.532;8.026;2022-10-23T02:52:32;11.70;;;1.33;;
21206;SDS011;10761;48.532;8.026;2022-10-23T02:55:13;11.32;;;1.20;;
21206;SDS011;10761;48.532;8.026;2022-10-23T03:00:49;4.53;;;0.95;;
21206;SDS011;10761;48.532;8.026;2022-10-23T03:03:21;13.23;;;1.40;;
21206;SDS011;10761;48.532;8.026;2022-10-23T03:06:00;3.45;;;1.10;;
21206;SDS011;10761;48.532;8.026;2022-10-23T03:08:26;3.90;;;1.30;;
21206;SDS011;10761;48.532;8.026;2022-10-23T03:10:52;2.03;;;0.95;;
21206;SDS011;10761;48.532;8.026;2022-10-23T03:13:17;3.40;;;1.05;;
21206;SDS011;10761;48.532;8.026;2022-10-23T03:15:43;3.03;;;1.08;;
21206;SDS011;10761;48.532;8.026;2022-10-23T03:18:09;3.35;;;0.90;;
21206;SDS011;10761;48.532;8.026;2022-10-23T03:20:34;2.45;;;0.90;;
21206;SDS011;10761;48.532;8.026;2022-10-23T03:23:00;3.67;;;0.90;;
21206;SDS011;10761;48.532;8.026;2022-10-23T03:25:26;6.53;;;0.90;;
21206;SDS011;10761;48.532;8.026;2022-10-23T03:27:52;3.67;;;0.90;;
21206;SDS011;10761;48.532;8.026;2022-10-23T03:30:18;3.33;;;0.82;;
21206;SDS011;10761;48.532;8.026;2022-10-23T03:32:43;3.78;;;0.80;;
21206;SDS011;10761;48.532;8.026;2022-10-23T03:35:09;3.03;;;0.90;;
21206;SDS011;10761;48.532;8.026;2022-10-23T03:37:34;3.33;;;0.80;;
21206;SDS011;10761;48.532;8.026;2022-10-23T03:40:00;3.55;;;0.73;;
21206;SDS011;10761;48.532;8.026;2022-10-23T03:42:26;3.55;;;0.82;;
21206;SDS011;10761;48.532;8.026;2022-10-23T03:44:52;4.95;;;0.80;;
21206;SDS011;10761;48.532;8.026;2022-10-23T03:47:17;3.70;;;1.10;;
21206;SDS011;10761;48.532;8.026;2022-10-23T03:49:43;1.75;;;0.82;;
21206;SDS011;10761;48.532;8.026;2022-10-23T03:52:09;7.13;;;1.02;;
21206;SDS011;10761;48.532;8.026;2022-10-23T03:54:34;4.43;;;1.00;;
21206;SDS011;10761;48.532;8.026;2022-10-23T03:57:00;0.85;;;0.60;;
21206;SDS011;10761;48.532;8.026;2022-10-23T03:59:26;1.75;;;0.70;;
21206;SDS011;10761;48.532;8.026;2022-10-23T04:01:52;4.10;;;0.95;;
21206;SDS011;10761;48.532;8.026;2022-10-23T04:04:18;1.48;;;0.80;;
21206;SDS011;10761;48.532;8.026;2022-10-23T04:06:43;3.60;;;0.82;;
21206;SDS011;10761;48.532;8.026;2022-10-23T04:09:09;2.13;;;1.02;;
21206;SDS011;10761;48.532;8.026;2022-10-23T04:11:35;3.35;;;0.90;;
21206;SDS011;10761;48.532;8.026;2022-10-23T04:14:01;6.15;;;0.98;;
21206;SDS011;10761;48.532;8.026;2022-10-23T04:16:26;8.13;;;1.10;;
21206;SDS011;10761;48.532;8.026;2022-10-23T04:18:52;8.13;;;1.08;;
21206;SDS011;10761;48.532;8.026;2022-10-23T04:21:17;3.60;;;1.00;;
21206;SDS011;10761;48.532;8.026;2022-10-23T04:23:43;2.25;;;1.00;;
21206;SDS011;10761;48.532;8.026;2022-10-23T04:26:09;2.42;;;0.80;;
21206;SDS011;10761;48.532;8.026;2022-10-23T04:28:35;1.70;;;0.82;;
21206;SDS011;10761;48.532;8.026;2022-10-23T04:31:01;3.22;;;0.80;;
21206;SDS011;10761;48.532;8.026;2022-10-23T04:33:26;2.05;;;1.05;;
21206;SDS011;10761;48.532;8.026;2022-10-23T04:35:52;3.45;;;1.05;;
21206;SDS011;10761;48.532;8.026;2022-10-23T04:38:18;3.75;;;0.82;;
21206;SDS011;10761;48.532;8.026;2022-10-23T04:40:43;4.25;;;0.80;;
21206;SDS011;10761;48.532;8.026;2022-10-23T04:43:09;3.38;;;0.82;;
21206;SDS011;10761;48.532;8.026;2022-10-23T04:45:35;8.15;;;1.10;;
21206;SDS011;10761;48.532;8.026;2022-10-23T04:48:00;5.45;;;1.20;;
21206;SDS011;10761;48.532;8.026;2022-10-23T04:50:26;6.55;;;0.90;;
21206;SDS011;10761;48.532;8.026;2022-10-23T04:52:55;3.53;;;0.70;;
21206;SDS011;10761;48.532;8.026;2022-10-23T04:55:22;5.75;;;1.20;;
21206;SDS011;10761;48.532;8.026;2022-10-23T04:57:51;2.58;;;0.75;;
21206;SDS011;10761;48.532;8.026;2022-10-23T05:00:17;4.50;;;0.75;;
21206;SDS011;10761;48.532;8.026;2022-10-23T05:02:43;2.63;;;0.90;;
21206;SDS011;10761;48.532;8.026;2022-10-23T05:05:09;2.50;;;0.90;;
21206;SDS011;10761;48.532;8.026;2022-10-23T05:07:35;1.75;;;0.80;;
21206;SDS011;10761;48.532;8.026;2022-10-23T05:10:01;0.80;;;0.80;;
21206;SDS011;10761;48.532;8.026;2022-10-23T05:12:28;5.15;;;2.63;;
21206;SDS011;10761;48.532;8.026;2022-10-23T05:14:53;5.28;;;2.10;;
21206;SDS011;10761;48.532;8.026;2022-10-23T05:17:20;4.97;;;1.30;;
21206;SDS011;10761;48.532;8.026;2022-10-23T05:19:53;3.20;;;1.30;;
21206;SDS011;10761;48.532;8.026;2022-10-23T05:22:21;3.60;;;1.00;;
21206;SDS011;10761;48.532;8.026;2022-10-23T05:24:50;3.70;;;1.00;;
21206;SDS011;10761;48.532;8.026;2022-10-23T05:27:16;1.92;;;0.88;;
21206;SDS011;10761;48.532;8.026;2022-10-23T05:29:42;5.68;;;1.33;;
21206;SDS011;10761;48.532;8.026;2022-10-23T05:32:07;4.80;;;1.02;;
21206;SDS011;10761;48.532;8.026;2022-10-23T05:34:36;2.95;;;0.88;;
21206;SDS011;10761;48.532;8.026;2022-10-23T05:37:02;5.78;;;0.82;;
21206;SDS011;10761;48.532;8.026;2022-10-23T05:39:31;1.88;;;0.80;;
21206;SDS011;10761;48.532;8.026;2022-10-23T05:41:57;2.72;;;0.90;;
21206;SDS011;10761;48.532;8.026;2022-10-23T05:44:23;2.00;;;0.88;;
21206;SDS011;10761;48.532;8.026;2022-10-23T05:46:49;4.90;;;0.82;;
21206;SDS011;10761;48.532;8.026;2022-10-23T05:49:14;6.82;;;0.90;;
21206;SDS011;10761;48.532;8.026;2022-10-23T05:51:40;4.03;;;1.05;;
21206;SDS011;10761;48.532;8.026;2022-10-23T05:54:06;3.38;;;0.90;;
21206;SDS011;10761;48.532;8.026;2022-10-23T05:56:36;3.58;;;0.85;;
21206;SDS011;10761;48.532;8.026;2022-10-23T05:59:03;4.57;;;0.80;;
21206;SDS011;10761;48.532;8.026;2022-10-23T06:01:29;1.77;;;0.70;;
21206;SDS011;10761;48.532;8.026;2022-10-23T06:03:55;6.15;;;0.63;;
21206;SDS011;10761;48.532;8.026;2022-10-23T06:06:22;2.30;;;0.73;;
21206;SDS011;10761;48.532;8.026;2022-10-23T06:08:48;3.30;;;0.80;;
21206;SDS011;10761;48.532;8.026;2022-10-23T06:11:14;3.42;;;0.95;;
21206;SDS011;10761;48.532;8.026;2022-10-23T06:13:43;8.18;;;1.27;;
21206;SDS011;10761;48.532;8.026;2022-10-23T06:16:10;4.22;;;1.02;;
21206;SDS011;10761;48.532;8.026;2022-10-23T06:18:41;5.10;;;1.30;;
21206;SDS011;10761;48.532;8.026;2022-10-23T06:21:08;5.43;;;1.60;;
21206;SDS011;10761;48.532;8.026;2022-10-23T06:23:35;6.68;;;1.33;;
21206;SDS011;10761;48.532;8.026;2022-10-23T06:26:02;5.40;;;1.55;;
21206;SDS011;10761;48.532;8.026;2022-10-23T06:28:28;10.02;;;1.42;;
21206;SDS011;10761;48.532;8.026;2022-10-23T06:30:54;4.80;;;1.15;;
21206;SDS011;10761;48.532;8.026;2022-10-23T06:33:19;4.00;;;1.27;;
21206;SDS011;10761;48.532;8.026;2022-10-23T06:35:45;3.88;;;1.10;;
21206;SDS011;10761;48.532;8.026;2022-10-23T06:38:11;4.43;;;1.73;;
21206;SDS011;10761;48.532;8.026;2022-10-23T06:40:37;3.90;;;2.38;;
21206;SDS011;10761;48.532;8.026;2022-10-23T06:43:03;7.22;;;1.38;;
21206;SDS011;10761;48.532;8.026;2022-10-23T06:45:29;8.48;;;1.42;;
21206;SDS011;10761;48.532;8.026;2022-10-23T06:47:58;4.70;;;1.10;;
21206;SDS011;10761;48.532;8.026;2022-10-23T06:50:24;3.58;;;1.38;;
21206;SDS011;10761;48.532;8.026;2022-10-23T06:52:50;6.22;;;1.00;;
21206;SDS011;10761;48.532;8.026;2022-10-23T06:55:17;8.43;;;1.10;;
21206;SDS011;10761;48.532;8.026;2022-10-23T06:57:42;3.08;;;0.82;;
21206;SDS011;10761;48.532;8.026;2022-10-23T07:00:08;8.52;;;1.20;;
21206;SDS011;10761;48.532;8.026;2022-10-23T07:02:34;2.53;;;1.17;;
21206;SDS011;10761;48.532;8.026;2022-10-23T07:05:00;2.63;;;1.05;;
21206;SDS011;10761;48.532;8.026;2022-10-23T07:07:28;4.07;;;1.30;;
21206;SDS011;10761;48.532;8.026;2022-10-23T07:09:54;5.00;;;1.00;;
21206;SDS011;10761;48.532;8.026;2022-10-23T07:12:19;5.90;;;1.20;;
21206;SDS011;10761;48.532;8.026;2022-10-23T07:14:45;2.72;;;0.95;;
21206;SDS011;10761;48.532;8.026;2022-10-23T07:17:10;4.95;;;1.33;;
21206;SDS011;10761;48.532;8.026;2022-10-23T07:19:36;4.20;;;1.00;;
21206;SDS011;10761;48.532;8.026;2022-10-23T07:22:02;11.02;;;4.40;;
21206;SDS011;10761;48.532;8.026;2022-10-23T07:24:27;3.17;;;2.20;;
21206;SDS011;10761;48.532;8.026;2022-10-23T07:26:54;4.72;;;1.48;;
21206;SDS011;10761;48.532;8.026;2022-10-23T07:29:20;2.50;;;0.93;;
21206;SDS011;10761;48.532;8.026;2022-10-23T07:31:46;3.10;;;1.20;;
21206;SDS011;10761;48.532;8.026;2022-10-23T07:34:11;3.33;;;1.63;;
21206;SDS011;10761;48.532;8.026;2022-10-23T07:36:37;9.27;;;1.55;;
21206;SDS011;10761;48.532;8.026;2022-10-23T07:39:03;5.75;;;1.50;;
21206;SDS011;10761;48.532;8.026;2022-10-23T07:41:28;5.78;;;1.90;;
21206;SDS011;10761;48.532;8.026;2022-10-23T07:43:54;4.10;;;1.70;;
21206;SDS011;10761;48.532;8.026;2022-10-23T07:46:19;6.45;;;2.10;;
21206;SDS011;10761;48.532;8.026;2022-10-23T07:48:45;6.13;;;2.15;;
21206;SDS011;10761;48.532;8.026;2022-10-23T07:51:12;7.72;;;2.38;;
21206;SDS011;10761;48.532;8.026;2022-10-23T07:53:40;9.63;;;2.80;;
21206;SDS011;10761;48.532;8.026;2022-10-23T07:58:43;9.80;;;1.90;;
21206;SDS011;10761;48.532;8.026;2022-10-23T08:01:19;3.47;;;1.52;;
21206;SDS011;10761;48.532;8.026;2022-10-23T08:04:03;6.78;;;1.20;;
21206;SDS011;10761;48.532;8.026;2022-10-23T08:06:30;9.85;;;1.40;;
21206;SDS011;10761;48.532;8.026;2022-10-23T08:08:55;7.10;;;1.52;;
21206;SDS011;10761;48.532;8.026;2022-10-23T08:11:22;8.30;;;1.40;;
21206;SDS011;10761;48.532;8.026;2022-10-23T08:13:52;10.70;;;1.33;;
21206;SDS011;10761;48.532;8.026;2022-10-23T08:16:19;5.07;;;1.60;;
21206;SDS011;10761;48.532;8.026;2022-10-23T08:18:45;5.80;;;1.50;;
21206;SDS011;10761;48.532;8.026;2022-10-23T08:21:12;3.35;;;1.42;;
21206;SDS011;10761;48.532;8.026;2022-10-23T08:23:38;3.65;;;1.42;;
21206;SDS011;10761;48.532;8.026;2022-10-23T08:26:04;1.65;;;1.20;;
21206;SDS011;10761;48.532;8.026;2022-10-23T08:28:30;8.73;;;1.35;;
21206;SDS011;10761;48.532;8.026;2022-10-23T08:30:56;2.92;;;1.20;;
21206;SDS011;10761;48.532;8.026;2022-10-23T08:33:22;4.95;;;1.20;;
21206;SDS011;10761;48.532;8.026;2022-10-23T08:35:49;9.68;;;1.10;;
21206;SDS011;10761;48.532;8.026;2022-10-23T08:38:15;5.70;;;1.10;;
21206;SDS011;10761;48.532;8.026;2022-10-23T08:40:45;2.85;;;0.88;;
21206;SDS011;10761;48.532;8.026;2022-10-23T08:43:14;7.38;;;0.80;;
21206;SDS011;10761;48.532;8.026;2022-10-23T08:46:19;4.95;;;0.70;;
21206;SDS011;10761;48.532;8.026;2022-10-23T08:48:42;2.10;;;0.70;;
21206;SDS011;10761;48.532;8.026;2022-10-23T08:51:15;2.22;;;1.33;;
21206;SDS011;10761;48.532;8.026;2022-10-23T08:56:24;4.97;;;0.68;;
21206;SDS011;10761;48.532;8.026;2022-10-23T09:04:32;5.95;;;0.90;;
21206;SDS011;10761;48.532;8.026;2022-10-23T09:09:54;1.55;;;0.60;;
21206;SDS011;10761;48.532;8.026;2022-10-23T09:12:46;3.80;;;0.70;;
21206;SDS011;10761;48.532;8.026;2022-10-23T09:15:30;5.28;;;0.98;;
21206;SDS011;10761;48.532;8.026;2022-10-23T09:18:08;3.10;;;1.00;;
21206;SDS011;10761;48.532;8.026;2022-10-23T09:20:38;5.70;;;0.80;;
21206;SDS011;10761;48.532;8.026;2022-10-23T09:25:37;6.30;;;0.85;;
21206;SDS011;10761;48.532;8.026;2022-10-23T09:28:04;3.75;;;0.90;;
21206;SDS011;10761;48.532;8.026;2022-10-23T09:33:23;4.85;;;0.80;;
21206;SDS011;10761;48.532;8.026;2022-10-23T09:38:24;7.10;;;1.02;;
21206;SDS011;10761;48.532;8.026;2022-10-23T09:43:18;2.08;;;0.90;;
21206;SDS011;10761;48.532;8.026;2022-10-23T09:46:22;5.93;;;1.00;;
21206;SDS011;10761;48.532;8.026;2022-10-23T09:48:41;3.50;;;0.80;;
21206;SDS011;10761;48.532;8.026;2022-10-23T09:51:14;3.60;;;0.77;;
21206;SDS011;10761;48.532;8.026;2022-10-23T09:53:49;7.18;;;0.80;;
21206;SDS011;10761;48.532;8.026;2022-10-23T09:58:55;2.08;;;0.70;;
21206;SDS011;10761;48.532;8.026;2022-10-23T10:01:42;3.55;;;0.70;;
21206;SDS011;10761;48.532;8.026;2022-10-23T10:04:12;4.45;;;0.80;;
21206;SDS011;10761;48.532;8.026;2022-10-23T10:06:38;3.75;;;0.88;;
21206;SDS011;10761;48.532;8.026;2022-10-23T10:09:05;6.32;;;1.00;;
21206;SDS011;10761;48.532;8.026;2022-10-23T10:11:49;2.70;;;0.80;;
21206;SDS011;10761;48.532;8.026;2022-10-23T10:16:50;1.20;;;0.70;;
21206;SDS011;10761;48.532;8.026;2022-10-23T10:21:55;9.23;;;0.90;;
21206;SDS011;10761;48.532;8.026;2022-10-23T10:24:31;4.43;;;0.70;;
21206;SDS011;10761;48.532;8.026;2022-10-23T10:32:52;3.90;;;0.80;;
21206;SDS011;10761;48.532;8.026;2022-10-23T10:40:38;1.52;;;0.50;;
21206;SDS011;10761;48.532;8.026;2022-10-23T10:43:10;2.13;;;0.80;;
21206;SDS011;10761;48.532;8.026;2022-10-23T10:45:46;1.35;;;0.70;;
21206;SDS011;10761;48.532;8.026;2022-10-23T10:48:26;3.65;;;0.65;;
21206;SDS011;10761;48.532;8.026;2022-10-23T10:51:04;2.55;;;0.70;;
21206;SDS011;10761;48.532;8.026;2022-10-23T10:56:24;4.32;;;0.70;;
21206;SDS011;10761;48.532;8.026;2022-10-23T10:58:57;1.20;;;0.60;;
21206;SDS011;10761;48.532;8.026;2022-10-23T11:06:42;2.17;;;0.70;;
21206;SDS011;10761;48.532;8.026;2022-10-23T11:09:15;6.75;;;0.93;;
21206;SDS011;10761;48.532;8.026;2022-10-23T11:11:51;4.60;;;0.60;;
21206;SDS011;10761;48.532;8.026;2022-10-23T11:14:20;5.15;;;0.80;;
21206;SDS011;10761;48.532;8.026;2022-10-23T11:16:51;3.30;;;0.90;;
21206;SDS011;10761;48.532;8.026;2022-10-23T11:19:36;4.82;;;0.90;;
21206;SDS011;10761;48.532;8.026;2022-10-23T11:22:15;2.17;;;0.70;;
21206;SDS011;10761;48.532;8.026;2022-10-23T11:36:42;1.88;;;0.85;;
21206;SDS011;10761;48.532;8.026;2022-10-23T11:39:23;0.85;;;0.65;;
21206;SDS011;10761;48.532;8.026;2022-10-23T11:41:58;3.65;;;0.90;;
21206;SDS011;10761;48.532;8.026;2022-10-23T11:44:46;0.85;;;0.70;;
21206;SDS011;10761;48.532;8.026;2022-10-23T11:52:31;2.67;;;0.80;;
21206;SDS011;10761;48.532;8.026;2022-10-23T11:55:02;2.80;;;0.77;;
21206;SDS011;10761;48.532;8.026;2022-10-23T11:57:43;5.03;;;0.88;;
21206;SDS011;10761;48.532;8.026;2022-10-23T12:00:20;4.78;;;0.90;;
21206;SDS011;10761;48.532;8.026;2022-10-23T12:02:50;2.42;;;1.10;;
21206;SDS011;10761;48.532;8.026;2022-10-23T12:08:02;6.85;;;1.10;;
21206;SDS011;10761;48.532;8.026;2022-10-23T12:10:30;4.53;;;1.00;;
21206;SDS011;10761;48.532;8.026;2022-10-23T12:13:00;3.17;;;0.80;;
21206;SDS011;10761;48.532;8.026;2022-10-23T12:15:31;2.97;;;0.80;;
21206;SDS011;10761;48.532;8.026;2022-10-23T12:18:12;4.25;;;1.00;;
21206;SDS011;10761;48.532;8.026;2022-10-23T12:20:43;4.05;;;1.10;;
21206;SDS011;10761;48.532;8.026;2022-10-23T12:37:05;3.67;;;0.90;;
21206;SDS011;10761;48.532;8.026;2022-10-23T12:39:40;5.25;;;0.80;;
21206;SDS011;10761;48.532;8.026;2022-10-23T12:42:10;5.47;;;0.93;;
21206;SDS011;10761;48.532;8.026;2022-10-23T12:44:42;6.00;;;1.10;;
21206;SDS011;10761;48.532;8.026;2022-10-23T12:47:13;5.25;;;0.85;;
21206;SDS011;10761;48.532;8.026;2022-10-23T12:49:47;5.70;;;1.17;;
21206;SDS011;10761;48.532;8.026;2022-10-23T12:52:14;6.13;;;1.10;;
21206;SDS011;10761;48.532;8.026;2022-10-23T12:54:42;4.40;;;1.20;;
21206;SDS011;10761;48.532;8.026;2022-10-23T12:59:50;1.92;;;0.80;;
21206;SDS011;10761;48.532;8.026;2022-10-23T13:02:21;5.15;;;1.25;;
21206;SDS011;10761;48.532;8.026;2022-10-23T13:04:50;2.55;;;1.02;;
21206;SDS011;10761;48.532;8.026;2022-10-23T13:07:18;2.72;;;1.10;;
21206;SDS011;10761;48.532;8.026;2022-10-23T13:09:46;3.90;;;1.00;;
21206;SDS011;10761;48.532;8.026;2022-10-23T13:12:22;1.95;;;1.10;;
21206;SDS011;10761;48.532;8.026;2022-10-23T13:14:55;2.33;;;1.20;;
21206;SDS011;10761;48.532;8.026;2022-10-23T13:17:31;3.97;;;1.15;;
21206;SDS011;10761;48.532;8.026;2022-10-23T13:22:48;2.55;;;1.00;;
21206;SDS011;10761;48.532;8.026;2022-10-23T13:25:25;2.88;;;1.02;;
21206;SDS011;10761;48.532;8.026;2022-10-23T13:28:10;4.63;;;1.10;;
21206;SDS011;10761;48.532;8.026;2022-10-23T13:33:36;4.70;;;1.23;;
21206;SDS011;10761;48.532;8.026;2022-10-23T13:36:03;1.50;;;0.95;;
21206;SDS011;10761;48.532;8.026;2022-10-23T13:38:44;5.25;;;0.98;;
21206;SDS011;10761;48.532;8.026;2022-10-23T13:41:15;7.20;;;1.15;;
21206;SDS011;10761;48.532;8.026;2022-10-23T13:43:43;6.25;;;1.15;;
21206;SDS011;10761;48.532;8.026;2022-10-23T13:46:17;3.45;;;1.20;;
21206;SDS011;10761;48.532;8.026;2022-10-23T13:48:47;5.43;;;1.38;;
21206;SDS011;10761;48.532;8.026;2022-10-23T13:53:40;7.65;;;1.45;;
21206;SDS011;10761;48.532;8.026;2022-10-23T13:56:06;8.23;;;1.30;;
21206;SDS011;10761;48.532;8.026;2022-10-23T13:58:33;8.57;;;1.17;;
21206;SDS011;10761;48.532;8.026;2022-10-23T14:00:59;3.63;;;1.48;;
21206;SDS011;10761;48.532;8.026;2022-10-23T14:03:24;7.50;;;1.63;;
21206;SDS011;10761;48.532;8.026;2022-10-23T14:05:50;2.15;;;1.35;;
21206;SDS011;10761;48.532;8.026;2022-10-23T14:08:16;5.28;;;1.63;;
21206;SDS011;10761;48.532;8.026;2022-10-23T14:10:42;3.50;;;2.10;;
21206;SDS011;10761;48.532;8.026;2022-10-23T14:13:08;3.95;;;2.22;;
21206;SDS011;10761;48.532;8.026;2022-10-23T14:15:33;3.63;;;1.85;;
21206;SDS011;10761;48.532;8.026;2022-10-23T14:17:59;5.18;;;2.25;;
21206;SDS011;10761;48.532;8.026;2022-10-23T14:20:25;5.75;;;2.00;;
21206;SDS011;10761;48.532;8.026;2022-10-23T14:22:50;7.85;;;2.90;;
21206;SDS011;10761;48.532;8.026;2022-10-23T14:25:16;6.15;;;2.50;;
21206;SDS011;10761;48.532;8.026;2022-10-23T14:27:42;9.98;;;2.72;;
21206;SDS011;10761;48.532;8.026;2022-10-23T14:30:08;4.32;;;2.00;;
21206;SDS011;10761;48.532;8.026;2022-10-23T14:32:34;4.95;;;1.33;;
21206;SDS011;10761;48.532;8.026;2022-10-23T14:35:00;2.90;;;1.27;;
21206;SDS011;10761;48.532;8.026;2022-10-23T14:37:28;9.20;;;1.73;;
21206;SDS011;10761;48.532;8.026;2022-10-23T14:39:55;3.78;;;1.42;;
21206;SDS011;10761;48.532;8.026;2022-10-23T14:42:20;2.83;;;1.20;;
21206;SDS011;10761;48.532;8.026;2022-10-23T14:44:46;5.78;;;1.33;;
21206;SDS011;10761;48.532;8.026;2022-10-23T14:47:13;4.40;;;1.23;;
21206;SDS011;10761;48.532;8.026;2022-10-23T14:49:39;1.77;;;1.40;;
21206;SDS011;10761;48.532;8.026;2022-10-23T14:52:06;4.97;;;1.75;;
21206;SDS011;10761;48.532;8.026;2022-10-23T14:54:32;3.15;;;1.55;;
21206;SDS011;10761;48.532;8.026;2022-10-23T14:57:00;8.20;;;1.70;;
21206;SDS011;10761;48.532;8.026;2022-10-23T14:59:26;2.75;;;1.48;;
21206;SDS011;10761;48.532;8.026;2022-10-23T15:01:52;5.55;;;1.25;;
21206;SDS011;10761;48.532;8.026;2022-10-23T15:04:19;5.68;;;2.00;;
21206;SDS011;10761;48.532;8.026;2022-10-23T15:06:45;2.17;;;1.35;;
21206;SDS011;10761;48.532;8.026;2022-10-23T15:09:11;7.70;;;1.40;;
21206;SDS011;10761;48.532;8.026;2022-10-23T15:11:38;5.63;;;1.50;;
21206;SDS011;10761;48.532;8.026;2022-10-23T15:14:03;3.15;;;1.48;;
21206;SDS011;10761;48.532;8.026;2022-10-23T15:16:30;6.30;;;1.55;;
21206;SDS011;10761;48.532;8.026;2022-10-23T15:18:55;6.07;;;1.75;;
21206;SDS011;10761;48.532;8.026;2022-10-23T15:21:21;8.45;;;1.65;;
21206;SDS011;10761;48.532;8.026;2022-10-23T15:23:47;2.60;;;1.70;;
21206;SDS011;10761;48.532;8.026;2022-10-23T15:26:17;6.78;;;1.92;;
21206;SDS011;10761;48.532;8.026;2022-10-23T15:28:59;4.45;;;1.83;;
21206;SDS011;10761;48.532;8.026;2022-10-23T15:33:57;8.18;;;1.40;;
21206;SDS011;10761;48.532;8.026;2022-10-23T15:36:23;5.68;;;1.50;;
21206;SDS011;10761;48.532;8.026;2022-10-23T15:38:49;5.93;;;1.48;;
21206;SDS011;10761;48.532;8.026;2022-10-23T15:41:17;2.00;;;1.05;;
21206;SDS011;10761;48.532;8.026;2022-10-23T15:43:47;4.20;;;1.33;;
21206;SDS011;10761;48.532;8.026;2022-10-23T15:46:13;12.77;;;2.25;;
21206;SDS011;10761;48.532;8.026;2022-10-23T15:48:38;4.07;;;1.50;;
21206;SDS011;10761;48.532;8.026;2022-10-23T15:51:04;4.35;;;1.20;;
21206;SDS011;10761;48.532;8.026;2022-10-23T15:53:30;2.20;;;1.10;;
21206;SDS011;10761;48.532;8.026;2022-10-23T15:55:56;3.83;;;1.17;;
21206;SDS011;10761;48.532;8.026;2022-10-23T15:58:23;3.65;;;1.35;;
21206;SDS011;10761;48.532;8.026;2022-10-23T16:00:49;2.28;;;1.80;;
21206;SDS011;10761;48.532;8.026;2022-10-23T16:03:15;2.45;;;1.70;;
21206;SDS011;10761;48.532;8.026;2022-10-23T16:05:40;6.07;;;2.10;;
21206;SDS011;10761;48.532;8.026;2022-10-23T16:08:06;5.13;;;2.05;;
21206;SDS011;10761;48.532;8.026;2022-10-23T16:10:32;3.15;;;1.75;;
21206;SDS011;10761;48.532;8.026;2022-10-23T16:13:02;5.65;;;1.80;;
21206;SDS011;10761;48.532;8.026;2022-10-23T16:15:27;9.38;;;2.63;;
21206;SDS011;10761;48.532;8.026;2022-10-23T16:17:53;6.25;;;1.48;;
21206;SDS011;10761;48.532;8.026;2022-10-23T16:20:19;5.72;;;1.60;;
21206;SDS011;10761;48.532;8.026;2022-10-23T16:22:45;4.90;;;1.50;;
21206;SDS011;10761;48.532;8.026;2022-10-23T16:25:11;5.05;;;1.67;;
21206;SDS011;10761;48.532;8.026;2022-10-23T16:27:37;2.22;;;1.33;;
21206;SDS011;10761;48.532;8.026;2022-10-23T16:30:03;3.78;;;1.50;;
21206;SDS011;10761;48.532;8.026;2022-10-23T16:32:31;3.08;;;1.60;;
21206;SDS011;10761;48.532;8.026;2022-10-23T16:34:57;4.90;;;2.13;;
21206;SDS011;10761;48.532;8.026;2022-10-23T16:37:23;6.38;;;1.85;;
21206;SDS011;10761;48.532;8.026;2022-10-23T16:39:48;15.00;;;2.38;;
21206;SDS011;10761;48.532;8.026;2022-10-23T16:42:14;20.40;;;3.03;;
21206;SDS011;10761;48.532;8.026;2022-10-23T16:44:39;15.57;;;2.60;;
21206;SDS011;10761;48.532;8.026;2022-10-23T16:47:05;14.30;;;3.00;;
21206;SDS011;10761;48.532;8.026;2022-10-23T16:49:31;13.90;;;2.92;;
21206;SDS011;10761;48.532;8.026;2022-10-23T16:51:57;10.82;;;2.90;;
21206;SDS011;10761;48.532;8.026;2022-10-23T16:54:22;20.92;;;2.90;;
21206;SDS011;10761;48.532;8.026;2022-10-23T16:56:48;18.63;;;3.20;;
21206;SDS011;10761;48.532;8.026;2022-10-23T16:59:14;16.17;;;3.20;;
21206;SDS011;10761;48.532;8.026;2022-10-23T17:01:39;17.58;;;3.30;;
21206;SDS011;10761;48.532;8.026;2022-10-23T17:04:05;22.25;;;3.58;;
21206;SDS011;10761;48.532;8.026;2022-10-23T17:06:34;16.05;;;3.33;;